sensor_id;sensor_type;location;lat;lon;timestamp;P1;durP1;ratioP1;P2;durP2;ratioP2
69392;SDS011;56582;44.624;20.378;2023-04-01T00:00:52;12.57;;;7.82;;
69392;SDS011;56582;44.624;20.378;2023-04-01T00:03:19;13.23;;;8.50;;
69392;SDS011;56582;44.624;20.378;2023-04-01T00:05:45;12.70;;;6.43;;
69392;SDS011;56582;44.624;20.378;2023-04-01T00:08:11;12.77;;;7.40;;
69392;SDS011;56582;44.624;20.378;2023-04-01T00:10:37;11.55;;;6.60;;
69392;SDS011;56582;44.624;20.378;2023-04-01T00:13:02;9.77;;;6.23;;
69392;SDS011;56582;44.624;20.378;2023-04-01T00:15:28;14.27;;;5.27;;
69392;SDS011;56582;44.624;20.378;2023-04-01T00:17:54;11.95;;;6.32;;
69392;SDS011;56582;44.624;20.378;2023-04-01T00:20:20;15.43;;;5.93;;
69392;SDS011;56582;44.624;20.378;2023-04-01T00:22:45;12.40;;;5.73;;
69392;SDS011;56582;44.624;20.378;2023-04-01T00:25:11;11.73;;;7.28;;
69392;SDS011;56582;44.624;20.378;2023-04-01T00:27:37;16.90;;;9.37;;
69392;SDS011;56582;44.624;20.378;2023-04-01T00:30:02;16.50;;;10.00;;
69392;SDS011;56582;44.624;20.378;2023-04-01T00:32:28;19.85;;;10.45;;
69392;SDS011;56582;44.624;20.378;2023-04-01T00:34:54;18.07;;;7.73;;
69392;SDS011;56582;44.624;20.378;2023-04-01T00:37:19;10.10;;;5.07;;
69392;SDS011;56582;44.624;20.378;2023-04-01T00:39:46;8.60;;;5.43;;
69392;SDS011;56582;44.624;20.378;2023-04-01T00:42:12;11.33;;;5.93;;
69392;SDS011;56582;44.624;20.378;2023-04-01T00:44:38;13.95;;;6.55;;
69392;SDS011;56582;44.624;20.378;2023-04-01T00:47:04;13.55;;;6.38;;
69392;SDS011;56582;44.624;20.378;2023-04-01T00:49:30;9.90;;;5.53;;
69392;SDS011;56582;44.624;20.378;2023-04-01T00:51:59;10.15;;;6.65;;
69392;SDS011;56582;44.624;20.378;2023-04-01T00:54:28;9.68;;;5.82;;
69392;SDS011;56582;44.624;20.378;2023-04-01T00:56:56;8.80;;;6.03;;
69392;SDS011;56582;44.624;20.378;2023-04-01T00:59:26;9.35;;;5.70;;
69392;SDS011;56582;44.624;20.378;2023-04-01T01:01:56;11.37;;;6.00;;
69392;SDS011;56582;44.624;20.378;2023-04-01T01:04:28;9.80;;;5.60;;
69392;SDS011;56582;44.624;20.378;2023-04-01T01:12:25;11.25;;;7.00;;
69392;SDS011;56582;44.624;20.378;2023-04-01T01:18:03;11.65;;;7.80;;
69392;SDS011;56582;44.624;20.378;2023-04-01T01:36:57;12.47;;;7.20;;
69392;SDS011;56582;44.624;20.378;2023-04-01T01:39:26;9.90;;;5.80;;
69392;SDS011;56582;44.624;20.378;2023-04-01T01:41:58;10.73;;;5.22;;
69392;SDS011;56582;44.624;20.378;2023-04-01T01:44:28;10.52;;;6.30;;
69392;SDS011;56582;44.624;20.378;2023-04-01T01:46:55;10.95;;;6.80;;
69392;SDS011;56582;44.624;20.378;2023-04-01T01:49:21;13.33;;;6.47;;
69392;SDS011;56582;44.624;20.378;2023-04-01T01:51:48;10.48;;;6.00;;
69392;SDS011;56582;44.624;20.378;2023-04-01T01:54:14;11.97;;;6.13;;
69392;SDS011;56582;44.624;20.378;2023-04-01T01:56:41;13.50;;;6.40;;
69392;SDS011;56582;44.624;20.378;2023-04-01T01:59:10;11.45;;;6.22;;
69392;SDS011;56582;44.624;20.378;2023-04-01T02:01:39;10.48;;;6.18;;
69392;SDS011;56582;44.624;20.378;2023-04-01T02:04:07;12.63;;;6.30;;
69392;SDS011;56582;44.624;20.378;2023-04-01T02:06:34;10.88;;;5.82;;
69392;SDS011;56582;44.624;20.378;2023-04-01T02:09:04;11.00;;;5.97;;
69392;SDS011;56582;44.624;20.378;2023-04-01T02:14:29;10.63;;;5.03;;
69392;SDS011;56582;44.624;20.378;2023-04-01T02:17:18;11.05;;;5.45;;
69392;SDS011;56582;44.624;20.378;2023-04-01T02:19:58;11.07;;;5.25;;
69392;SDS011;56582;44.624;20.378;2023-04-01T02:22:31;11.77;;;5.30;;
69392;SDS011;56582;44.624;20.378;2023-04-01T02:24:59;13.45;;;6.15;;
69392;SDS011;56582;44.624;20.378;2023-04-01T02:27:30;11.15;;;5.40;;
69392;SDS011;56582;44.624;20.378;2023-04-01T02:29:56;8.27;;;5.15;;
69392;SDS011;56582;44.624;20.378;2023-04-01T02:32:22;9.63;;;5.13;;
69392;SDS011;56582;44.624;20.378;2023-04-01T02:34:49;8.67;;;5.40;;
69392;SDS011;56582;44.624;20.378;2023-04-01T02:37:15;9.80;;;4.93;;
69392;SDS011;56582;44.624;20.378;2023-04-01T02:39:41;9.18;;;4.90;;
69392;SDS011;56582;44.624;20.378;2023-04-01T02:42:08;11.30;;;4.67;;
69392;SDS011;56582;44.624;20.378;2023-04-01T02:44:33;10.60;;;5.32;;
69392;SDS011;56582;44.624;20.378;2023-04-01T02:46:59;10.38;;;5.28;;
69392;SDS011;56582;44.624;20.378;2023-04-01T02:49:24;8.53;;;5.30;;
69392;SDS011;56582;44.624;20.378;2023-04-01T02:51:50;7.10;;;5.13;;
69392;SDS011;56582;44.624;20.378;2023-04-01T02:54:16;9.63;;;5.20;;
69392;SDS011;56582;44.624;20.378;2023-04-01T02:56:42;10.88;;;5.22;;
69392;SDS011;56582;44.624;20.378;2023-04-01T02:59:08;6.20;;;4.27;;
69392;SDS011;56582;44.624;20.378;2023-04-01T03:01:33;9.30;;;4.63;;
69392;SDS011;56582;44.624;20.378;2023-04-01T03:03:59;10.10;;;4.80;;
69392;SDS011;56582;44.624;20.378;2023-04-01T03:06:24;8.05;;;5.18;;
69392;SDS011;56582;44.624;20.378;2023-04-01T03:08:50;8.00;;;4.80;;
69392;SDS011;56582;44.624;20.378;2023-04-01T03:11:15;9.67;;;5.53;;
69392;SDS011;56582;44.624;20.378;2023-04-01T03:13:40;8.50;;;5.50;;
69392;SDS011;56582;44.624;20.378;2023-04-01T03:16:06;10.03;;;6.07;;
69392;SDS011;56582;44.624;20.378;2023-04-01T03:18:32;15.73;;;6.90;;
69392;SDS011;56582;44.624;20.378;2023-04-01T03:20:57;10.00;;;6.43;;
69392;SDS011;56582;44.624;20.378;2023-04-01T03:23:46;7.05;;;5.60;;
69392;SDS011;56582;44.624;20.378;2023-04-01T03:26:12;13.00;;;5.60;;
69392;SDS011;56582;44.624;20.378;2023-04-01T03:28:38;9.38;;;5.50;;
69392;SDS011;56582;44.624;20.378;2023-04-01T03:31:04;11.40;;;6.00;;
69392;SDS011;56582;44.624;20.378;2023-04-01T03:33:30;7.78;;;5.78;;
69392;SDS011;56582;44.624;20.378;2023-04-01T03:35:56;10.85;;;5.72;;
69392;SDS011;56582;44.624;20.378;2023-04-01T03:38:21;12.20;;;5.90;;
69392;SDS011;56582;44.624;20.378;2023-04-01T03:40:46;8.17;;;5.97;;
69392;SDS011;56582;44.624;20.378;2023-04-01T03:43:12;10.25;;;5.82;;
69392;SDS011;56582;44.624;20.378;2023-04-01T03:45:47;10.23;;;6.30;;
69392;SDS011;56582;44.624;20.378;2023-04-01T03:48:14;9.48;;;5.85;;
69392;SDS011;56582;44.624;20.378;2023-04-01T03:50:40;9.17;;;6.30;;
69392;SDS011;56582;44.624;20.378;2023-04-01T03:53:06;9.18;;;6.03;;
69392;SDS011;56582;44.624;20.378;2023-04-01T03:55:32;8.18;;;5.85;;
69392;SDS011;56582;44.624;20.378;2023-04-01T03:57:57;10.43;;;6.53;;
69392;SDS011;56582;44.624;20.378;2023-04-01T04:00:24;9.80;;;5.82;;
69392;SDS011;56582;44.624;20.378;2023-04-01T04:02:50;8.17;;;6.57;;
69392;SDS011;56582;44.624;20.378;2023-04-01T04:05:15;8.25;;;5.72;;
69392;SDS011;56582;44.624;20.378;2023-04-01T04:07:41;11.10;;;6.60;;
69392;SDS011;56582;44.624;20.378;2023-04-01T04:10:06;9.60;;;6.37;;
69392;SDS011;56582;44.624;20.378;2023-04-01T04:12:32;9.05;;;6.40;;
69392;SDS011;56582;44.624;20.378;2023-04-01T04:14:57;11.33;;;6.53;;
69392;SDS011;56582;44.624;20.378;2023-04-01T04:17:23;11.97;;;7.07;;
69392;SDS011;56582;44.624;20.378;2023-04-01T04:19:48;9.15;;;6.55;;
69392;SDS011;56582;44.624;20.378;2023-04-01T04:22:14;8.87;;;6.50;;
69392;SDS011;56582;44.624;20.378;2023-04-01T04:24:39;10.40;;;5.87;;
69392;SDS011;56582;44.624;20.378;2023-04-01T04:27:05;11.65;;;5.60;;
69392;SDS011;56582;44.624;20.378;2023-04-01T04:29:30;10.07;;;6.30;;
69392;SDS011;56582;44.624;20.378;2023-04-01T04:31:56;12.47;;;6.90;;
69392;SDS011;56582;44.624;20.378;2023-04-01T04:34:21;10.40;;;6.73;;
69392;SDS011;56582;44.624;20.378;2023-04-01T04:36:47;10.32;;;7.70;;
69392;SDS011;56582;44.624;20.378;2023-04-01T04:39:13;12.52;;;6.97;;
69392;SDS011;56582;44.624;20.378;2023-04-01T04:41:39;11.07;;;7.00;;
69392;SDS011;56582;44.624;20.378;2023-04-01T04:44:04;13.63;;;7.10;;
69392;SDS011;56582;44.624;20.378;2023-04-01T04:46:30;13.03;;;7.17;;
69392;SDS011;56582;44.624;20.378;2023-04-01T04:48:56;12.13;;;7.57;;
69392;SDS011;56582;44.624;20.378;2023-04-01T04:51:21;11.57;;;7.65;;
69392;SDS011;56582;44.624;20.378;2023-04-01T04:53:47;12.55;;;8.25;;
69392;SDS011;56582;44.624;20.378;2023-04-01T04:56:17;12.73;;;7.55;;
69392;SDS011;56582;44.624;20.378;2023-04-01T04:58:43;11.60;;;7.53;;
69392;SDS011;56582;44.624;20.378;2023-04-01T05:01:10;14.15;;;8.27;;
69392;SDS011;56582;44.624;20.378;2023-04-01T05:03:37;14.80;;;7.67;;
69392;SDS011;56582;44.624;20.378;2023-04-01T05:06:02;11.05;;;7.78;;
69392;SDS011;56582;44.624;20.378;2023-04-01T05:08:29;15.45;;;9.70;;
69392;SDS011;56582;44.624;20.378;2023-04-01T05:10:54;11.43;;;8.00;;
69392;SDS011;56582;44.624;20.378;2023-04-01T05:13:20;14.37;;;8.93;;
69392;SDS011;56582;44.624;20.378;2023-04-01T05:15:45;11.45;;;8.27;;
69392;SDS011;56582;44.624;20.378;2023-04-01T05:18:11;10.47;;;7.80;;
69392;SDS011;56582;44.624;20.378;2023-04-01T05:20:36;11.57;;;7.63;;
69392;SDS011;56582;44.624;20.378;2023-04-01T05:23:02;14.10;;;8.67;;
69392;SDS011;56582;44.624;20.378;2023-04-01T05:25:27;12.30;;;8.48;;
69392;SDS011;56582;44.624;20.378;2023-04-01T05:27:53;13.77;;;9.53;;
69392;SDS011;56582;44.624;20.378;2023-04-01T05:30:18;13.27;;;9.50;;
69392;SDS011;56582;44.624;20.378;2023-04-01T05:32:44;14.13;;;8.90;;
69392;SDS011;56582;44.624;20.378;2023-04-01T05:35:10;15.73;;;10.60;;
69392;SDS011;56582;44.624;20.378;2023-04-01T05:37:36;13.70;;;8.82;;
69392;SDS011;56582;44.624;20.378;2023-04-01T05:40:05;14.00;;;8.23;;
69392;SDS011;56582;44.624;20.378;2023-04-01T05:42:31;11.27;;;7.37;;
69392;SDS011;56582;44.624;20.378;2023-04-01T05:44:56;12.35;;;9.68;;
69392;SDS011;56582;44.624;20.378;2023-04-01T05:47:22;18.67;;;12.67;;
69392;SDS011;56582;44.624;20.378;2023-04-01T05:49:48;33.58;;;20.42;;
69392;SDS011;56582;44.624;20.378;2023-04-01T05:52:13;22.30;;;14.93;;
69392;SDS011;56582;44.624;20.378;2023-04-01T05:54:39;16.23;;;10.80;;
69392;SDS011;56582;44.624;20.378;2023-04-01T05:57:04;13.10;;;8.00;;
69392;SDS011;56582;44.624;20.378;2023-04-01T05:59:29;14.43;;;7.78;;
69392;SDS011;56582;44.624;20.378;2023-04-01T06:01:56;11.40;;;7.30;;
69392;SDS011;56582;44.624;20.378;2023-04-01T06:04:22;12.57;;;8.10;;
69392;SDS011;56582;44.624;20.378;2023-04-01T06:06:48;10.82;;;6.10;;
69392;SDS011;56582;44.624;20.378;2023-04-01T06:09:18;13.52;;;8.82;;
69392;SDS011;56582;44.624;20.378;2023-04-01T06:28:26;15.10;;;8.30;;
69392;SDS011;56582;44.624;20.378;2023-04-01T06:45:08;18.15;;;11.80;;
69392;SDS011;56582;44.624;20.378;2023-04-01T06:47:45;16.50;;;10.35;;
69392;SDS011;56582;44.624;20.378;2023-04-01T06:53:12;11.98;;;10.35;;
69392;SDS011;56582;44.624;20.378;2023-04-01T06:55:56;14.23;;;8.20;;
69392;SDS011;56582;44.624;20.378;2023-04-01T06:58:29;10.02;;;7.68;;
69392;SDS011;56582;44.624;20.378;2023-04-01T07:01:01;11.98;;;7.05;;
69392;SDS011;56582;44.624;20.378;2023-04-01T07:03:42;12.27;;;8.90;;
69392;SDS011;56582;44.624;20.378;2023-04-01T07:06:25;10.38;;;8.07;;
69392;SDS011;56582;44.624;20.378;2023-04-01T07:08:55;15.20;;;8.93;;
69392;SDS011;56582;44.624;20.378;2023-04-01T07:11:29;11.00;;;8.52;;
69392;SDS011;56582;44.624;20.378;2023-04-01T07:14:00;10.82;;;8.10;;
69392;SDS011;56582;44.624;20.378;2023-04-01T07:21:48;9.77;;;8.02;;
69392;SDS011;56582;44.624;20.378;2023-04-01T07:24:25;12.45;;;7.63;;
69392;SDS011;56582;44.624;20.378;2023-04-01T07:26:59;9.47;;;7.80;;
69392;SDS011;56582;44.624;20.378;2023-04-01T07:29:25;12.40;;;7.88;;
69392;SDS011;56582;44.624;20.378;2023-04-01T07:31:57;10.80;;;7.60;;
69392;SDS011;56582;44.624;20.378;2023-04-01T07:37:34;20.95;;;15.00;;
69392;SDS011;56582;44.624;20.378;2023-04-01T07:48:30;15.02;;;9.38;;
69392;SDS011;56582;44.624;20.378;2023-04-01T07:53:49;13.27;;;10.27;;
69392;SDS011;56582;44.624;20.378;2023-04-01T07:56:30;11.75;;;9.43;;
69392;SDS011;56582;44.624;20.378;2023-04-01T08:01:47;65.50;;;27.73;;
69392;SDS011;56582;44.624;20.378;2023-04-01T08:10:09;12.73;;;9.60;;
69392;SDS011;56582;44.624;20.378;2023-04-01T08:15:57;12.07;;;8.82;;
69392;SDS011;56582;44.624;20.378;2023-04-01T08:21:05;13.50;;;8.50;;
69392;SDS011;56582;44.624;20.378;2023-04-01T08:23:42;13.80;;;9.98;;
69392;SDS011;56582;44.624;20.378;2023-04-01T08:26:26;15.07;;;9.35;;
69392;SDS011;56582;44.624;20.378;2023-04-01T08:28:59;19.90;;;12.48;;
69392;SDS011;56582;44.624;20.378;2023-04-01T08:33:57;13.75;;;10.00;;
69392;SDS011;56582;44.624;20.378;2023-04-01T08:36:28;20.88;;;14.25;;
69392;SDS011;56582;44.624;20.378;2023-04-01T08:39:20;29.48;;;14.90;;
69392;SDS011;56582;44.624;20.378;2023-04-01T08:42:31;12.80;;;9.20;;
69392;SDS011;56582;44.624;20.378;2023-04-01T08:48:01;12.65;;;8.43;;
69392;SDS011;56582;44.624;20.378;2023-04-01T08:59:04;11.83;;;7.93;;
69392;SDS011;56582;44.624;20.378;2023-04-01T09:01:46;12.73;;;8.20;;
69392;SDS011;56582;44.624;20.378;2023-04-01T09:10:37;14.23;;;9.75;;
69392;SDS011;56582;44.624;20.378;2023-04-01T09:21:54;14.05;;;8.25;;
69392;SDS011;56582;44.624;20.378;2023-04-01T09:35:36;10.50;;;6.32;;
69392;SDS011;56582;44.624;20.378;2023-04-01T09:40:57;33.80;;;18.47;;
69392;SDS011;56582;44.624;20.378;2023-04-01T09:43:27;45.92;;;23.58;;
69392;SDS011;56582;44.624;20.378;2023-04-01T10:03:01;15.63;;;10.25;;
69392;SDS011;56582;44.624;20.378;2023-04-01T10:09:21;20.37;;;11.80;;
69392;SDS011;56582;44.624;20.378;2023-04-01T10:26:25;17.45;;;10.25;;
69392;SDS011;56582;44.624;20.378;2023-04-01T10:57:27;7.95;;;6.40;;
69392;SDS011;56582;44.624;20.378;2023-04-01T11:00:38;8.30;;;6.03;;
69392;SDS011;56582;44.624;20.378;2023-04-01T11:26:43;10.13;;;7.05;;
69392;SDS011;56582;44.624;20.378;2023-04-01T11:40:45;13.23;;;8.82;;
69392;SDS011;56582;44.624;20.378;2023-04-01T11:43:21;9.80;;;7.77;;
69392;SDS011;56582;44.624;20.378;2023-04-01T11:46:07;8.55;;;6.32;;
69392;SDS011;56582;44.624;20.378;2023-04-01T11:57:27;23.67;;;11.87;;
69392;SDS011;56582;44.624;20.378;2023-04-01T12:13:40;7.13;;;4.82;;
69392;SDS011;56582;44.624;20.378;2023-04-01T12:31:19;10.45;;;6.95;;
69392;SDS011;56582;44.624;20.378;2023-04-01T12:33:53;11.07;;;8.10;;
69392;SDS011;56582;44.624;20.378;2023-04-01T12:53:41;10.47;;;7.40;;
69392;SDS011;56582;44.624;20.378;2023-04-01T13:02:30;6.45;;;4.80;;
69392;SDS011;56582;44.624;20.378;2023-04-01T13:08:16;8.37;;;6.37;;
69392;SDS011;56582;44.624;20.378;2023-04-01T13:11:13;7.72;;;5.45;;
69392;SDS011;56582;44.624;20.378;2023-04-01T13:19:36;8.05;;;5.65;;
69392;SDS011;56582;44.624;20.378;2023-04-01T13:22:19;7.50;;;4.73;;
69392;SDS011;56582;44.624;20.378;2023-04-01T13:33:04;9.18;;;5.32;;
69392;SDS011;56582;44.624;20.378;2023-04-01T13:44:59;8.70;;;5.75;;
69392;SDS011;56582;44.624;20.378;2023-04-01T14:13:00;8.75;;;6.15;;
69392;SDS011;56582;44.624;20.378;2023-04-01T14:18:33;11.10;;;7.50;;
69392;SDS011;56582;44.624;20.378;2023-04-01T14:38:21;12.13;;;7.67;;
69392;SDS011;56582;44.624;20.378;2023-04-01T14:45:58;12.32;;;8.55;;
69392;SDS011;56582;44.624;20.378;2023-04-01T14:51:16;12.53;;;7.73;;
69392;SDS011;56582;44.624;20.378;2023-04-01T15:21:00;10.82;;;7.50;;
69392;SDS011;56582;44.624;20.378;2023-04-01T15:35:46;15.68;;;10.07;;
69392;SDS011;56582;44.624;20.378;2023-04-01T15:38:41;14.57;;;9.97;;
69392;SDS011;56582;44.624;20.378;2023-04-01T15:46:52;14.20;;;9.85;;
69392;SDS011;56582;44.624;20.378;2023-04-01T15:49:35;12.93;;;9.40;;
69392;SDS011;56582;44.624;20.378;2023-04-01T16:00:31;11.17;;;7.00;;
69392;SDS011;56582;44.624;20.378;2023-04-01T16:27:13;33.53;;;14.25;;
69392;SDS011;56582;44.624;20.378;2023-04-01T16:29:49;31.88;;;12.40;;
69392;SDS011;56582;44.624;20.378;2023-04-01T16:38:22;35.08;;;16.25;;
69392;SDS011;56582;44.624;20.378;2023-04-01T16:43:50;22.10;;;12.88;;
69392;SDS011;56582;44.624;20.378;2023-04-01T16:51:34;22.67;;;14.82;;
69392;SDS011;56582;44.624;20.378;2023-04-01T17:00:37;15.67;;;10.27;;
69392;SDS011;56582;44.624;20.378;2023-04-01T17:08:20;25.27;;;13.35;;
69392;SDS011;56582;44.624;20.378;2023-04-01T17:10:57;30.08;;;17.02;;
69392;SDS011;56582;44.624;20.378;2023-04-01T17:16:28;23.65;;;13.20;;
69392;SDS011;56582;44.624;20.378;2023-04-01T17:22:04;23.90;;;13.50;;
69392;SDS011;56582;44.624;20.378;2023-04-01T17:24:52;66.15;;;26.38;;
69392;SDS011;56582;44.624;20.378;2023-04-01T17:36:12;23.83;;;13.75;;
69392;SDS011;56582;44.624;20.378;2023-04-01T17:57:46;30.48;;;17.42;;
69392;SDS011;56582;44.624;20.378;2023-04-01T18:00:38;32.53;;;18.63;;
69392;SDS011;56582;44.624;20.378;2023-04-01T18:08:23;28.53;;;15.73;;
69392;SDS011;56582;44.624;20.378;2023-04-01T18:14:30;40.50;;;22.92;;
69392;SDS011;56582;44.624;20.378;2023-04-01T18:19:29;115.00;;;50.70;;
69392;SDS011;56582;44.624;20.378;2023-04-01T18:22:18;82.53;;;37.85;;
69392;SDS011;56582;44.624;20.378;2023-04-01T18:30:34;59.03;;;28.17;;
69392;SDS011;56582;44.624;20.378;2023-04-01T18:38:11;36.55;;;20.00;;
69392;SDS011;56582;44.624;20.378;2023-04-01T18:43:29;26.97;;;15.97;;
69392;SDS011;56582;44.624;20.378;2023-04-01T18:56:39;30.50;;;17.30;;
69392;SDS011;56582;44.624;20.378;2023-04-01T18:59:12;21.75;;;13.07;;
69392;SDS011;56582;44.624;20.378;2023-04-01T19:04:35;25.83;;;14.57;;
69392;SDS011;56582;44.624;20.378;2023-04-01T19:07:23;19.35;;;12.75;;
69392;SDS011;56582;44.624;20.378;2023-04-01T19:29:07;20.00;;;11.53;;
69392;SDS011;56582;44.624;20.378;2023-04-01T19:37:32;28.50;;;15.07;;
69392;SDS011;56582;44.624;20.378;2023-04-01T19:45:59;22.95;;;13.88;;
69392;SDS011;56582;44.624;20.378;2023-04-01T19:57:17;28.35;;;12.75;;
69392;SDS011;56582;44.624;20.378;2023-04-01T20:04:58;40.58;;;17.33;;
69392;SDS011;56582;44.624;20.378;2023-04-01T20:07:37;31.45;;;17.15;;
69392;SDS011;56582;44.624;20.378;2023-04-01T20:10:10;34.10;;;17.10;;
69392;SDS011;56582;44.624;20.378;2023-04-01T20:15:47;22.33;;;12.73;;
69392;SDS011;56582;44.624;20.378;2023-04-01T20:18:13;37.42;;;17.80;;
69392;SDS011;56582;44.624;20.378;2023-04-01T20:20:51;34.08;;;18.00;;
69392;SDS011;56582;44.624;20.378;2023-04-01T20:23:35;25.10;;;15.13;;
69392;SDS011;56582;44.624;20.378;2023-04-01T20:26:10;25.08;;;14.43;;
69392;SDS011;56582;44.624;20.378;2023-04-01T20:29:02;26.03;;;13.60;;
69392;SDS011;56582;44.624;20.378;2023-04-01T20:31:44;23.15;;;13.13;;
69392;SDS011;56582;44.624;20.378;2023-04-01T20:45:35;23.83;;;16.05;;
69392;SDS011;56582;44.624;20.378;2023-04-01T20:53:50;27.27;;;18.52;;
69392;SDS011;56582;44.624;20.378;2023-04-01T20:56:31;26.43;;;17.53;;
69392;SDS011;56582;44.624;20.378;2023-04-01T21:07:45;23.60;;;13.30;;
69392;SDS011;56582;44.624;20.378;2023-04-01T21:13:19;19.50;;;11.90;;
69392;SDS011;56582;44.624;20.378;2023-04-01T21:21:57;18.25;;;11.02;;
69392;SDS011;56582;44.624;20.378;2023-04-01T21:38:30;17.77;;;9.53;;
69392;SDS011;56582;44.624;20.378;2023-04-01T22:01:13;25.42;;;13.70;;
69392;SDS011;56582;44.624;20.378;2023-04-01T22:09:29;71.85;;;31.02;;
69392;SDS011;56582;44.624;20.378;2023-04-01T22:12:02;31.25;;;17.52;;
69392;SDS011;56582;44.624;20.378;2023-04-01T22:14:46;27.33;;;14.90;;
69392;SDS011;56582;44.624;20.378;2023-04-01T22:28:59;191.95;;;68.63;;
69392;SDS011;56582;44.624;20.378;2023-04-01T22:31:28;189.18;;;68.88;;
69392;SDS011;56582;44.624;20.378;2023-04-01T22:34:10;223.87;;;75.93;;
69392;SDS011;56582;44.624;20.378;2023-04-01T22:44:30;239.82;;;81.75;;
69392;SDS011;56582;44.624;20.378;2023-04-01T22:55:44;27.67;;;14.30;;
69392;SDS011;56582;44.624;20.378;2023-04-01T22:58:14;27.05;;;13.75;;
69392;SDS011;56582;44.624;20.378;2023-04-01T23:00:47;26.43;;;13.67;;
69392;SDS011;56582;44.624;20.378;2023-04-01T23:05:53;23.27;;;12.95;;
69392;SDS011;56582;44.624;20.378;2023-04-01T23:13:52;318.17;;;114.53;;
69392;SDS011;56582;44.624;20.378;2023-04-01T23:16:31;216.25;;;83.13;;
69392;SDS011;56582;44.624;20.378;2023-04-01T23:19:12;97.82;;;40.90;;
69392;SDS011;56582;44.624;20.378;2023-04-01T23:21:49;143.85;;;58.97;;
69392;SDS011;56582;44.624;20.378;2023-04-01T23:24:21;104.72;;;44.67;;
69392;SDS011;56582;44.624;20.378;2023-04-01T23:29:25;59.70;;;27.88;;
69392;SDS011;56582;44.624;20.378;2023-04-01T23:32:05;91.85;;;42.38;;
69392;SDS011;56582;44.624;20.378;2023-04-01T23:34:40;47.60;;;24.15;;
69392;SDS011;56582;44.624;20.378;2023-04-01T23:37:12;34.60;;;17.30;;
69392;SDS011;56582;44.624;20.378;2023-04-01T23:39:42;23.27;;;13.10;;
69392;SDS011;56582;44.624;20.378;2023-04-01T23:44:55;112.75;;;56.25;;
69392;SDS011;56582;44.624;20.378;2023-04-01T23:47:23;43.97;;;24.08;;
69392;SDS011;56582;44.624;20.378;2023-04-01T23:50:00;29.88;;;15.85;;
69392;SDS011;56582;44.624;20.378;2023-04-01T23:52:35;24.87;;;13.20;;
69392;SDS011;56582;44.624;20.378;2023-04-01T23:55:17;21.88;;;12.38;;
